Time;durP1;ratioP1;P1;durP2;ratioP2;P2;SDS_P1;SDS_P2;PMS_P1;PMS_P2;Temp;Humidity;BMP_temperature;BMP_pressure;BME280_temperature;BME280_humidity;BME280_pressure;Samples;Min_cycle;Max_cycle;Signal;HPM_P1;HPM_P2
2022/01/23 00:02:27;;;;;;;52.10;35.55;;;;;;;4.42;96.63;103503.31;5022977;28;20033;-77
2022/01/23 00:04:53;;;;;;;54.17;35.70;;;;;;;4.42;97.11;103498.09;5029736;28;20072;-77
2022/01/23 00:07:19;;;;;;;54.00;35.78;;;;;;;4.39;97.18;103497.22;5030271;28;20026;-77
2022/01/23 00:09:45;;;;;;;50.55;35.72;;;;;;;4.39;96.82;103494.63;5030339;28;20056;-77
2022/01/23 00:12:16;;;;;;;49.83;35.15;;;;;;;4.39;97.02;103496.34;5025541;28;20389;-77
2022/01/23 00:17:33;;;;;;;48.25;34.50;;;;;;;4.39;96.87;103488.53;5023865;28;20103;-77
2022/01/23 00:19:59;;;;;;;47.92;34.13;;;;;;;4.39;97.22;103484.19;5029777;28;20021;-77
2022/01/23 00:22:46;;;;;;;49.83;34.15;;;;;;;4.38;97.27;103486.81;5028661;28;20473;-76
2022/01/23 00:30:42;;;;;;;48.92;34.38;;;;;;;4.38;97.37;103481.59;5029858;28;20033;-77
2022/01/23 00:33:09;;;;;;;49.70;34.65;;;;;;;4.35;97.13;103482.47;5029362;28;20033;-77
2022/01/23 00:35:36;;;;;;;49.50;35.58;;;;;;;4.36;97.44;103481.59;5029395;28;20114;-77
2022/01/23 00:38:04;;;;;;;48.60;34.55;;;;;;;4.33;97.34;103473.81;5030136;28;20021;-77
2022/01/23 00:40:30;;;;;;;48.50;34.50;;;;;;;4.36;97.52;103462.50;5013874;28;20057;-77
2022/01/23 00:42:58;;;;;;;48.25;34.15;;;;;;;4.35;97.41;103472.06;5008588;28;20175;-77
2022/01/23 00:45:41;;;;;;;53.38;34.63;;;;;;;4.32;97.59;103477.28;5009736;28;20026;-77
2022/01/23 00:48:08;;;;;;;47.47;33.75;;;;;;;4.34;97.12;103475.53;5010999;28;20022;-77
2022/01/23 00:50:39;;;;;;;50.05;34.88;;;;;;;4.35;97.71;103466.84;5028789;28;20120;-77
2022/01/23 00:53:10;;;;;;;49.47;34.17;;;;;;;4.33;97.52;103465.13;5027220;28;20478;-78
2022/01/23 00:55:37;;;;;;;53.40;33.38;;;;;;;4.34;97.33;103467.72;5023660;28;20032;-77
2022/01/23 00:58:03;;;;;;;47.38;33.67;;;;;;;4.34;97.11;103465.09;5009663;28;20018;-77
2022/01/23 01:00:28;;;;;;;47.50;32.50;;;;;;;4.34;97.08;103472.94;5008701;28;20482;-77
2022/01/23 01:02:53;;;;;;;54.03;33.42;;;;;;;4.34;97.71;103466.84;5008280;28;20068;-76
2022/01/23 01:05:20;;;;;;;45.92;32.67;;;;;;;4.35;97.24;103465.97;5008129;28;20025;-77
2022/01/23 01:07:45;;;;;;;46.70;32.15;;;;;;;4.35;98.12;103471.19;5009174;28;20030;-77
2022/01/23 01:10:21;;;;;;;47.22;32.10;;;;;;;4.32;97.38;103469.47;5013263;28;20026;-77
2022/01/23 01:12:49;;;;;;;45.78;32.78;;;;;;;4.34;97.60;103466.84;5014026;28;20037;-77
2022/01/23 01:34:39;;;;;;;49.67;33.22;;;;;;;4.34;97.56;103483.34;5036834;28;20037;-77
2022/01/23 01:37:04;;;;;;;47.67;33.42;;;;;;;4.32;97.59;103474.69;5032753;28;20071;-77
2022/01/23 01:39:29;;;;;;;47.38;33.30;;;;;;;4.34;97.48;103470.31;5047985;28;20024;-77
2022/01/23 01:41:56;;;;;;;49.83;34.05;;;;;;;4.33;97.53;103476.41;5031962;28;20029;-77
2022/01/23 01:44:24;;;;;;;50.05;34.25;;;;;;;4.33;97.42;103483.38;5030742;28;20363;-77
2022/01/23 01:46:50;;;;;;;48.35;32.92;;;;;;;4.31;97.60;103478.16;5030528;28;20017;-76
2022/01/23 01:49:26;;;;;;;46.28;31.85;;;;;;;4.31;97.76;103475.56;5030908;28;20166;-77
2022/01/23 01:51:53;;;;;;;49.92;32.58;;;;;;;4.30;97.36;103473.81;5033307;28;20083;-77
2022/01/23 01:54:20;;;;;;;47.95;33.13;;;;;;;4.31;97.28;103485.13;5032710;28;20079;-77
2022/01/23 01:57:04;;;;;;;46.80;33.38;;;;;;;4.32;97.63;103485.09;5030901;28;20048;-77
2022/01/23 01:59:46;;;;;;;54.33;33.97;;;;;;;4.32;98.14;103482.50;5032470;28;20546;-79
2022/01/23 02:10:32;;;;;;;48.97;33.05;;;;;;;4.30;97.71;103494.66;5031115;28;20094;-77
2022/01/23 02:13:18;;;;;;;46.63;32.78;;;;;;;4.31;97.55;103491.19;5030925;28;20026;-77
2022/01/23 02:51:43;;;;;;;43.58;31.80;;;;;;;4.28;97.71;103452.13;5031778;28;20355;-77
2022/01/23 02:56:46;;;;;;;44.97;31.23;;;;;;;4.28;97.97;103448.66;5031233;28;20383;-77
2022/01/23 03:02:12;;;;;;;42.58;29.92;;;;;;;4.26;97.90;103438.22;5018441;28;20038;-77
2022/01/23 03:04:37;;;;;;;45.92;31.08;;;;;;;4.27;97.51;103442.56;5009874;28;20116;-77
2022/01/23 03:10:01;;;;;;;47.08;30.70;;;;;;;4.26;97.76;103446.06;5031763;28;20099;-77
2022/01/23 03:15:28;;;;;;;47.00;30.70;;;;;;;4.27;97.62;103453.00;5011314;28;20052;-77
2022/01/23 03:26:34;;;;;;;46.63;31.60;;;;;;;4.26;97.71;103456.47;5008186;28;20052;-77
2022/01/23 03:31:56;;;;;;;44.78;30.42;;;;;;;4.28;98.00;103464.28;5022240;28;20026;-77
2022/01/23 03:34:26;;;;;;;46.10;30.75;;;;;;;4.29;97.79;103471.22;5030149;28;20032;-77
2022/01/23 03:36:53;;;;;;;48.97;31.02;;;;;;;4.26;97.79;103466.03;5030382;28;20117;-77
2022/01/23 03:39:21;;;;;;;44.85;31.30;;;;;;;4.26;97.93;103460.81;5029405;28;20397;-77
2022/01/23 03:41:47;;;;;;;46.53;31.35;;;;;;;4.28;97.93;103462.53;5045616;28;20037;-77
2022/01/23 03:44:16;;;;;;;51.47;32.22;;;;;;;4.26;97.68;103466.03;5030909;28;20035;-79
2022/01/23 03:46:50;;;;;;;47.92;32.50;;;;;;;4.27;97.61;103471.22;5030845;28;20025;-77
2022/01/23 03:49:50;;;;;;;50.40;31.95;;;;;;;4.26;97.80;103466.91;5028996;28;20556;-77
2022/01/23 03:52:14;;;;;;;49.08;32.60;;;;;;;4.26;97.76;103458.22;5027314;28;20033;-77
2022/01/23 03:54:40;;;;;;;49.70;32.70;;;;;;;4.26;97.70;103466.03;5015801;28;20033;-77
2022/01/23 03:57:07;;;;;;;55.28;33.22;;;;;;;4.25;98.13;103459.97;5010573;28;20076;-77
2022/01/23 03:59:32;;;;;;;53.22;33.45;;;;;;;4.25;98.12;103459.97;5009790;28;20057;-77
2022/01/23 04:01:58;;;;;;;52.28;33.03;;;;;;;4.25;97.93;103465.16;5020442;28;20045;-77
2022/01/23 04:06:52;;;;;;;51.50;33.35;;;;;;;4.26;97.82;103466.91;5027581;28;20089;-77
2022/01/23 04:09:18;;;;;;;51.88;34.00;;;;;;;4.25;98.01;103462.56;5009534;28;20030;-79
2022/01/23 04:11:44;;;;;;;53.08;34.42;;;;;;;4.25;97.80;103472.97;5009962;28;20026;-79
2022/01/23 04:14:12;;;;;;;51.72;34.50;;;;;;;4.25;97.81;103479.94;5021019;28;20056;-79
2022/01/23 04:45:38;;;;;;;53.20;35.03;;;;;;;4.23;97.97;103474.72;5028788;28;20040;-77
2022/01/23 05:02:05;;;;;;;55.50;34.60;;;;;;;4.23;98.23;103482.56;5013249;28;20088;-77
2022/01/23 05:04:33;;;;;;;56.35;34.72;;;;;;;4.22;98.04;103486.03;5027402;28;20025;-77
2022/01/23 05:07:01;;;;;;;55.08;36.08;;;;;;;4.23;98.30;103485.16;5042909;28;20036;-77
2022/01/23 05:09:28;;;;;;;56.72;34.78;;;;;;;4.24;98.35;103479.06;5007906;28;20505;-77
2022/01/23 05:11:59;;;;;;;58.35;35.90;;;;;;;4.23;98.59;103479.09;5008881;28;20022;-77
2022/01/23 05:14:32;;;;;;;56.28;35.92;;;;;;;4.23;97.88;103474.72;5022210;28;20056;-76
2022/01/23 05:16:58;;;;;;;58.67;35.92;;;;;;;4.22;98.37;103478.22;5029205;28;20028;-76
2022/01/23 05:19:24;;;;;;;55.13;36.00;;;;;;;4.25;98.61;103486.00;5044327;28;20478;-79
2022/01/23 05:22:09;;;;;;;54.80;34.75;;;;;;;4.24;98.18;103475.59;5025642;28;20044;-79
2022/01/23 05:24:38;;;;;;;54.95;34.05;;;;;;;4.24;98.19;103473.84;5009801;28;20038;-77
2022/01/23 05:27:07;;;;;;;53.63;34.67;;;;;;;4.23;98.50;103481.69;5024923;28;20029;-77
2022/01/23 05:29:33;;;;;;;53.67;35.20;;;;;;;4.23;98.04;103482.56;5012446;28;20037;-77
2022/01/23 05:31:58;;;;;;;50.65;33.97;;;;;;;4.23;98.32;103485.16;5015784;28;20043;-78
2022/01/23 05:34:24;;;;;;;53.47;34.90;;;;;;;4.24;97.98;103484.28;5028051;28;20030;-78
2022/01/23 05:36:51;;;;;;;57.42;34.40;;;;;;;4.24;98.25;103489.50;5029199;28;20477;-77
2022/01/23 05:39:19;;;;;;;52.30;34.55;;;;;;;4.24;98.31;103492.09;5029197;28;20549;-77
2022/01/23 05:41:45;;;;;;;53.15;33.95;;;;;;;4.25;98.04;103490.34;5027310;28;20061;-77
2022/01/23 05:44:10;;;;;;;52.97;34.67;;;;;;;4.23;98.67;103492.97;5029456;28;20064;-77
2022/01/23 05:46:36;;;;;;;54.80;34.72;;;;;;;4.26;98.05;103487.75;5028604;28;20041;-77
2022/01/23 05:49:01;;;;;;;51.15;34.38;;;;;;;4.25;98.28;103486.00;5028756;28;20033;-77
2022/01/23 05:51:26;;;;;;;50.50;34.22;;;;;;;4.24;98.14;103492.09;5028286;28;20397;-77
2022/01/23 05:53:52;;;;;;;54.67;35.60;;;;;;;4.25;98.13;103490.34;5029023;28;20025;-77
2022/01/23 05:56:18;;;;;;;54.97;35.17;;;;;;;4.24;98.41;103484.28;5040353;28;20056;-77
2022/01/23 05:58:43;;;;;;;55.15;34.75;;;;;;;4.25;98.29;103479.94;5027835;28;20036;-77
2022/01/23 06:01:09;;;;;;;53.78;35.35;;;;;;;4.22;98.31;103475.59;5013495;28;20032;-79
2022/01/23 06:03:34;;;;;;;58.55;36.42;;;;;;;4.22;98.17;103475.59;5031778;28;20025;-78
2022/01/23 06:05:59;;;;;;;52.85;35.60;;;;;;;4.23;98.16;103477.34;5031455;28;20367;-78
2022/01/23 06:08:25;;;;;;;51.83;36.40;;;;;;;4.22;98.25;103480.81;5032058;28;20450;-77
2022/01/23 06:10:56;;;;;;;55.35;35.90;;;;;;;4.22;98.17;103475.59;5031092;28;20028;-77
2022/01/23 06:13:22;;;;;;;60.00;36.60;;;;;;;4.20;98.30;103471.28;5030460;28;20025;-77
2022/01/23 06:15:47;;;;;;;53.85;36.45;;;;;;;4.20;97.94;103472.16;5031458;28;20060;-77
2022/01/23 06:18:13;;;;;;;58.47;36.60;;;;;;;4.21;98.19;103476.47;5040019;28;20178;-77
2022/01/23 06:20:38;;;;;;;59.60;36.83;;;;;;;4.20;98.41;103479.97;5031305;28;20022;-77
2022/01/23 06:23:04;;;;;;;60.00;36.85;;;;;;;4.21;98.71;103483.44;5040401;28;20014;-77
2022/01/23 06:25:34;;;;;;;58.67;36.88;;;;;;;4.21;98.35;103488.66;5011723;28;20497;-79
2022/01/23 06:28:00;;;;;;;56.25;37.47;;;;;;;4.20;98.41;103486.91;5011330;28;20029;-79
2022/01/23 06:30:25;;;;;;;57.67;36.63;;;;;;;4.19;98.52;103480.84;5018582;28;20116;-76
2022/01/23 06:32:50;;;;;;;59.88;37.33;;;;;;;4.19;98.60;103480.84;5031649;28;20108;-77
2022/01/23 06:35:16;;;;;;;57.80;36.88;;;;;;;4.21;98.71;103483.44;5032001;28;20087;-77
2022/01/23 06:37:41;;;;;;;58.08;38.83;;;;;;;4.20;98.65;103485.19;5031357;28;20363;-77
2022/01/23 06:40:07;;;;;;;54.25;36.30;;;;;;;4.19;98.42;103482.59;5032545;28;20040;-77
2022/01/23 06:42:32;;;;;;;59.42;38.60;;;;;;;4.22;98.45;103485.16;5030696;28;20026;-77
2022/01/23 06:44:58;;;;;;;57.90;37.55;;;;;;;4.21;99.10;103497.34;5031368;28;20482;-77
2022/01/23 06:47:24;;;;;;;58.55;38.22;;;;;;;4.20;98.84;103498.22;5027216;28;20025;-77
2022/01/23 06:49:49;;;;;;;62.58;37.58;;;;;;;4.20;98.38;103494.72;5017896;28;20076;-77
2022/01/23 06:52:15;;;;;;;59.40;38.15;;;;;;;4.19;98.27;103506.91;5028399;28;20038;-77
2022/01/23 06:54:40;;;;;;;59.03;38.05;;;;;;;4.20;98.74;103502.56;5010868;28;20036;-77
2022/01/23 06:57:06;;;;;;;60.65;37.17;;;;;;;4.17;98.54;103503.44;5019604;28;20104;-77
2022/01/23 06:59:31;;;;;;;57.65;38.28;;;;;;;4.17;99.23;103495.63;5010707;28;20065;-77
2022/01/23 07:01:57;;;;;;;58.10;36.95;;;;;;;4.20;98.42;103503.41;5011747;28;20026;-77
2022/01/23 07:04:23;;;;;;;58.13;38.25;;;;;;;4.18;98.36;103505.16;5024540;28;20393;-77
2022/01/23 07:06:48;;;;;;;57.08;37.55;;;;;;;4.16;98.64;103512.13;5030013;28;20022;-77
2022/01/23 07:09:14;;;;;;;59.08;38.10;;;;;;;4.19;98.91;103516.44;5029814;28;20113;-76
2022/01/23 07:11:39;;;;;;;60.78;37.75;;;;;;;4.19;98.88;103517.31;5030925;28;20482;-77
2022/01/23 07:14:05;;;;;;;58.85;38.40;;;;;;;4.16;98.94;103517.34;5015756;28;20523;-76
2022/01/23 07:16:30;;;;;;;64.22;39.92;;;;;;;4.19;98.66;103522.53;5009634;28;20026;-76
2022/01/23 07:18:55;;;;;;;63.60;39.95;;;;;;;4.18;98.70;103526.00;5011280;28;20034;-76
2022/01/23 07:21:21;;;;;;;61.78;39.78;;;;;;;4.17;98.56;103523.41;5010053;28;20026;-77
2022/01/23 07:23:50;;;;;;;61.20;38.45;;;;;;;4.18;98.40;103528.63;5010102;28;20030;-76
2022/01/23 07:26:18;;;;;;;63.53;39.92;;;;;;;4.18;98.93;103541.63;5011117;28;20075;-76
2022/01/23 07:28:45;;;;;;;64.57;40.15;;;;;;;4.17;99.05;103539.91;5010767;28;20470;-76
2022/01/23 07:31:11;;;;;;;66.00;39.30;;;;;;;4.15;98.60;103536.44;5022300;28;20038;-77
2022/01/23 07:33:36;;;;;;;60.90;38.28;;;;;;;4.15;98.51;103546.88;5019673;28;20037;-77
2022/01/23 07:36:03;;;;;;;62.92;38.92;;;;;;;4.15;99.04;103552.06;5028050;28;20152;-77
2022/01/23 07:38:30;;;;;;;65.38;40.00;;;;;;;4.15;98.81;103546.00;5044688;28;20029;-77
2022/01/23 07:40:55;;;;;;;62.33;39.65;;;;;;;4.15;98.51;103546.88;5029532;28;20025;-76
2022/01/23 07:43:21;;;;;;;61.33;38.10;;;;;;;4.15;98.96;103557.28;5029466;28;20029;-76
2022/01/23 07:45:46;;;;;;;59.30;38.53;;;;;;;4.14;98.81;103555.56;5030805;28;20049;-77
2022/01/23 07:48:12;;;;;;;61.65;38.75;;;;;;;4.15;98.77;103551.22;5029699;28;20385;-77
2022/01/23 07:50:38;;;;;;;60.83;38.95;;;;;;;4.14;98.80;103555.56;5030819;28;20381;-76
2022/01/23 07:53:04;;;;;;;61.00;38.90;;;;;;;4.15;98.72;103559.03;5029690;28;20144;-77
2022/01/23 07:55:30;;;;;;;59.33;39.33;;;;;;;4.15;99.27;103562.50;5029795;28;20029;-77
2022/01/23 07:58:02;;;;;;;63.42;39.65;;;;;;;4.16;99.02;103559.03;5030532;28;20025;-76
2022/01/23 08:00:28;;;;;;;61.10;39.40;;;;;;;4.18;98.98;103572.03;5029440;28;20033;-77
2022/01/23 08:02:53;;;;;;;64.30;39.20;;;;;;;4.17;99.19;103565.09;5030052;28;20036;-76
2022/01/23 08:05:22;;;;;;;61.67;38.65;;;;;;;4.17;98.98;103559.88;5030426;28;20029;-76
2022/01/23 08:07:47;;;;;;;62.78;39.70;;;;;;;4.19;99.31;103568.56;5046502;28;20482;-77
2022/01/23 08:10:15;;;;;;;66.63;39.47;;;;;;;4.19;99.36;103558.13;5030113;28;20056;-77
2022/01/23 08:12:41;;;;;;;62.15;39.05;;;;;;;4.16;99.46;103553.81;5030502;28;20543;-76
2022/01/23 08:15:07;;;;;;;66.03;39.00;;;;;;;4.17;99.33;103563.34;5015879;28;20041;-77
2022/01/23 08:17:32;;;;;;;64.28;39.65;;;;;;;4.18;99.45;103566.84;5009885;28;20034;-77
2022/01/23 08:20:00;;;;;;;63.85;39.47;;;;;;;4.18;99.40;103567.69;5018678;28;20033;-76
2022/01/23 08:22:27;;;;;;;64.88;39.88;;;;;;;4.17;99.53;103558.16;5010798;28;20409;-80
2022/01/23 08:24:54;;;;;;;64.93;40.05;;;;;;;4.17;99.25;103562.50;5010429;28;20099;-79
2022/01/23 08:27:21;;;;;;;65.43;39.50;;;;;;;4.17;99.38;103568.56;5010811;28;20032;-80
2022/01/23 08:29:46;;;;;;;61.97;39.47;;;;;;;4.19;99.81;103569.44;5010855;28;20034;-80
2022/01/23 08:32:12;;;;;;;61.30;39.65;;;;;;;4.18;99.85;103572.91;5012167;28;20049;-79
2022/01/23 08:34:38;;;;;;;68.88;40.42;;;;;;;4.20;99.41;103576.38;5030370;28;20449;-79
2022/01/23 08:37:06;;;;;;;62.45;39.70;;;;;;;4.20;99.68;103575.50;5028585;28;20121;-76
2022/01/23 08:39:35;;;;;;;66.95;39.70;;;;;;;4.20;99.26;103576.38;5020394;28;20202;-76
2022/01/23 08:42:02;;;;;;;64.07;40.03;;;;;;;4.22;99.55;103586.78;5011062;28;20033;-76
2022/01/23 08:44:28;;;;;;;58.92;39.38;;;;;;;4.23;99.24;103583.31;5022740;28;20112;-79
2022/01/23 08:46:54;;;;;;;65.97;39.45;;;;;;;4.23;99.19;103585.91;5028983;28;20035;-79
2022/01/23 08:49:21;;;;;;;64.55;40.10;;;;;;;4.23;99.81;103589.38;5026351;28;20389;-79
2022/01/23 08:51:48;;;;;;;64.47;39.53;;;;;;;4.22;99.54;103584.19;5029293;28;20014;-79
2022/01/23 08:54:15;;;;;;;62.65;40.30;;;;;;;4.23;99.68;103594.59;5029727;28;20512;-79
2022/01/23 08:56:41;;;;;;;65.10;40.50;;;;;;;4.25;99.87;103595.47;5045402;28;20371;-79
2022/01/23 08:59:07;;;;;;;66.97;39.92;;;;;;;4.26;99.72;103597.19;5029533;28;20037;-79
2022/01/23 09:01:33;;;;;;;67.53;40.85;;;;;;;4.28;99.63;103594.59;5044854;28;20025;-79
2022/01/23 09:03:59;;;;;;;66.07;40.70;;;;;;;4.29;99.75;103598.91;5030004;28;20025;-79
2022/01/23 09:06:24;;;;;;;64.82;39.95;;;;;;;4.31;99.77;103595.44;5029102;28;20028;-79
2022/01/23 09:08:52;;;;;;;65.28;40.30;;;;;;;4.31;99.48;103595.44;5024851;28;20034;-79
2022/01/23 09:11:39;;;;;;;62.30;38.97;;;;;;;4.30;99.88;103593.69;5019581;28;20022;-79
2022/01/23 09:14:09;;;;;;;63.97;40.28;;;;;;;4.33;99.64;103591.09;5009669;28;20037;-79
2022/01/23 09:16:43;;;;;;;59.75;39.03;;;;;;;4.35;99.50;103586.72;5010022;28;20033;-79
2022/01/23 09:19:09;;;;;;;63.55;39.17;;;;;;;4.34;99.71;103590.22;5009229;28;20032;-79
2022/01/23 09:21:37;;;;;;;64.25;40.83;;;;;;;4.36;99.39;103588.47;5024852;28;20042;-79
2022/01/23 09:24:04;;;;;;;61.60;38.95;;;;;;;4.34;99.14;103585.00;5037545;28;20046;-79
2022/01/23 09:26:30;;;;;;;62.88;39.95;;;;;;;4.35;99.07;103581.50;5027525;28;20049;-78
2022/01/23 09:28:59;;;;;;;60.00;39.72;;;;;;;4.38;99.23;103586.72;5008996;28;20032;-78
2022/01/23 09:31:48;;;;;;;64.15;41.17;;;;;;;4.39;99.23;103588.44;5028858;28;20108;-79
2022/01/23 09:34:28;;;;;;;65.20;40.83;;;;;;;4.38;99.18;103585.84;5031592;28;20044;-79
2022/01/23 09:36:54;;;;;;;;;;;;;;;4.50;98.86;103595.38;5034652;28;20033;-78
2022/01/23 09:39:20;;;;;;;63.88;39.92;;;;;;;4.44;99.07;103595.41;5033157;28;19909;-79
2022/01/23 09:41:50;;;;;;;65.38;41.00;;;;;;;4.45;98.72;103597.16;5033049;28;20037;-79
2022/01/23 09:44:17;;;;;;;65.25;39.58;;;;;;;4.47;98.75;103595.41;5033190;28;20071;-79
2022/01/23 09:46:44;;;;;;;63.58;39.90;;;;;;;4.45;98.55;103599.75;5033154;28;20021;-79
2022/01/23 09:49:12;;;;;;;61.67;39.17;;;;;;;4.47;98.61;103598.00;5032525;28;20025;-79
2022/01/23 09:51:41;;;;;;;62.20;39.90;;;;;;;4.50;98.67;103611.03;5031525;28;20481;-79
2022/01/23 09:54:10;;;;;;;62.75;39.97;;;;;;;4.51;98.93;103602.31;5030822;28;20045;-79
2022/01/23 09:56:35;;;;;;;62.67;40.20;;;;;;;4.54;99.07;103604.91;5032149;28;20022;-78
2022/01/23 09:59:01;;;;;;;65.53;39.88;;;;;;;4.55;98.90;103609.25;5019338;28;20193;-79
2022/01/23 10:01:26;;;;;;;64.22;41.05;;;;;;;4.57;98.47;103613.59;5012402;28;20025;-79
2022/01/23 10:03:52;;;;;;;64.00;40.50;;;;;;;4.59;98.98;103610.97;5036571;28;20033;-79
2022/01/23 10:06:17;;;;;;;62.95;40.85;;;;;;;4.59;98.59;103611.84;5032897;28;20033;-79
2022/01/23 10:08:43;;;;;;;63.25;39.53;;;;;;;4.63;98.90;103613.56;5027227;28;20034;-78
2022/01/23 10:11:12;;;;;;;63.53;39.30;;;;;;;4.67;98.55;103617.00;5013426;28;20030;-78
2022/01/23 10:13:40;;;;;;;64.18;40.35;;;;;;;4.67;98.40;103609.19;5019480;28;20148;-78
2022/01/23 10:16:06;;;;;;;62.72;40.05;;;;;;;4.68;98.24;103603.09;5031018;28;20029;-78
2022/01/23 10:18:31;;;;;;;62.67;39.58;;;;;;;4.69;98.37;103608.31;5030687;28;20048;-79
2022/01/23 10:20:57;;;;;;;60.17;39.35;;;;;;;4.73;98.33;103609.16;5016745;28;20018;-79
2022/01/23 10:23:24;;;;;;;61.92;39.97;;;;;;;4.76;98.07;103608.28;5012789;28;20041;-79
2022/01/23 10:25:51;;;;;;;65.38;40.58;;;;;;;4.78;98.00;103610.00;5012594;28;20075;-79
2022/01/23 10:28:19;;;;;;;64.72;39.97;;;;;;;4.81;97.78;103603.94;5023516;28;20029;-79
2022/01/23 10:30:55;;;;;;;61.20;39.75;;;;;;;4.85;98.25;103609.13;5023830;28;20021;-79
2022/01/23 10:33:23;;;;;;;61.67;38.05;;;;;;;4.87;98.12;103602.16;5031934;28;20021;-79
2022/01/23 10:36:11;;;;;;;61.70;39.92;;;;;;;4.92;97.96;103602.97;5048030;28;20045;-78
2022/01/23 10:38:57;;;;;;;59.45;39.08;;;;;;;4.95;97.77;103608.19;5030167;28;20033;-79
2022/01/23 10:41:32;;;;;;;64.15;40.22;;;;;;;4.93;97.45;103601.25;5022235;28;20021;-79
2022/01/23 10:50:06;;;;;;;59.58;38.97;;;;;;;5.06;97.69;103602.00;5012687;28;20116;-77
2022/01/23 10:52:44;;;;;;;64.18;39.65;;;;;;;5.04;97.29;103600.28;5011432;28;20284;-80
2022/01/23 10:55:29;;;;;;;61.50;38.58;;;;;;;5.08;97.16;103598.50;5012728;28;20026;-77
2022/01/23 10:58:01;;;;;;;64.15;39.88;;;;;;;5.09;97.42;103591.56;5016527;28;20052;-77
2022/01/23 11:00:33;;;;;;;61.95;39.47;;;;;;;5.10;97.29;103588.94;5031616;28;20076;-79
2022/01/23 11:03:02;;;;;;;62.88;40.97;;;;;;;5.12;96.92;103597.63;5031099;28;20021;-77
2022/01/23 11:05:37;;;;;;;58.17;38.42;;;;;;;5.17;96.86;103601.06;5029516;28;20393;-78
2022/01/23 11:08:18;;;;;;;64.57;40.17;;;;;;;5.19;96.93;103598.44;5030677;28;20055;-77
2022/01/23 11:11:00;;;;;;;58.30;37.55;;;;;;;5.23;97.10;103600.16;5017055;28;20033;-78
2022/01/23 11:19:16;;;;;;;60.55;39.83;;;;;;;5.28;96.39;103583.59;5031100;28;20142;-78
2022/01/23 11:21:42;;;;;;;62.17;41.05;;;;;;;5.31;96.38;103577.47;5032022;28;20473;-77
2022/01/23 11:24:07;;;;;;;64.50;40.25;;;;;;;5.36;97.27;103586.13;5047322;28;20466;-77
2022/01/23 11:26:32;;;;;;;61.92;40.20;;;;;;;5.39;97.24;103580.03;5029355;28;20040;-78
2022/01/23 11:29:10;;;;;;;58.33;38.45;;;;;;;5.42;96.96;103580.88;5030527;28;20025;-77
2022/01/23 11:31:38;;;;;;;60.03;39.47;;;;;;;5.43;97.29;103577.38;5018371;28;20053;-77
2022/01/23 11:34:06;;;;;;;60.03;38.83;;;;;;;5.44;95.90;103573.88;5027173;28;20034;-77
2022/01/23 11:36:32;;;;;;;61.15;39.58;;;;;;;5.46;96.37;103566.03;5045524;28;20562;-77
2022/01/23 11:39:10;;;;;;;61.22;40.22;;;;;;;5.48;96.32;103565.13;5027527;28;20132;-77
2022/01/23 11:56:29;;;;;;;52.90;36.03;;;;;;;5.69;96.24;103561.47;5025458;28;20059;-76
2022/01/23 11:59:32;;;;;;;51.17;35.35;;;;;;;5.75;95.92;103557.94;5026075;28;20026;-78
2022/01/23 12:02:12;;;;;;;50.90;35.65;;;;;;;5.78;95.50;103560.50;5026423;28;20037;-78
2022/01/23 12:04:39;;;;;;;51.15;35.10;;;;;;;5.75;94.13;103555.31;5025188;28;20029;-78
2022/01/23 12:07:20;;;;;;;50.42;34.80;;;;;;;5.79;93.95;103554.41;5025353;28;20053;-79
2022/01/23 12:10:19;;;;;;;51.53;34.08;;;;;;;5.84;94.42;103552.59;5026872;28;20033;-79
2022/01/23 12:12:48;;;;;;;49.80;33.60;;;;;;;5.83;94.39;103548.25;5026248;28;20022;-80
2022/01/23 12:18:16;;;;;;;50.88;34.42;;;;;;;5.84;93.55;103539.53;5026453;28;20048;-79
2022/01/23 12:20:44;;;;;;;51.63;34.13;;;;;;;5.83;92.63;103530.84;5026192;28;20512;-79
2022/01/23 12:23:10;;;;;;;50.13;34.60;;;;;;;5.86;93.40;103541.25;5027825;28;20022;-79
2022/01/23 12:25:56;;;;;;;49.60;34.90;;;;;;;5.92;94.23;103535.13;5029308;28;20401;-79
2022/01/23 12:28:27;;;;;;;52.92;35.17;;;;;;;5.89;93.88;103538.63;5022547;28;20048;-76
2022/01/23 12:30:59;;;;;;;55.45;36.63;;;;;;;5.96;94.14;103531.59;5028104;28;20044;-75
2022/01/23 12:33:29;;;;;;;54.53;37.72;;;;;;;5.92;93.88;103529.91;5027299;28;20134;-75
2022/01/23 12:35:56;;;;;;;54.55;38.08;;;;;;;5.96;93.92;103537.69;5023577;28;20482;-75
2022/01/23 12:38:34;;;;;;;55.67;36.30;;;;;;;5.99;93.13;103534.16;5026212;28;20044;-75
2022/01/23 12:41:13;;;;;;;52.50;36.03;;;;;;;6.00;93.20;103532.41;5025931;28;20401;-75
2022/01/23 12:43:38;;;;;;;52.90;34.42;;;;;;;5.97;92.43;103534.19;5027720;28;20360;-75
2022/01/23 12:46:05;;;;;;;50.45;33.53;;;;;;;5.97;91.59;103530.69;5028307;28;20029;-76
2022/01/23 12:48:43;;;;;;;48.90;33.45;;;;;;;5.98;91.81;103524.59;5024491;28;20143;-76
2022/01/23 12:51:32;;;;;;;49.88;34.75;;;;;;;6.03;92.23;103527.19;5022799;28;20112;-75
2022/01/23 12:53:58;;;;;;;50.58;34.42;;;;;;;6.01;91.87;103524.59;5029090;28;20030;-76
2022/01/23 12:56:41;;;;;;;50.10;35.20;;;;;;;6.01;92.04;103524.59;5026233;28;20036;-75
2022/01/23 12:59:09;;;;;;;51.63;34.50;;;;;;;5.98;90.67;103528.06;5024119;28;20037;-76
2022/01/23 13:01:38;;;;;;;54.45;34.55;;;;;;;6.02;91.41;103520.22;5028894;28;20026;-75
2022/01/23 13:04:06;;;;;;;52.88;36.40;;;;;;;6.00;90.64;103512.38;5027415;28;20147;-75
2022/01/23 13:06:32;;;;;;;54.05;36.95;;;;;;;6.00;90.75;103512.38;5046760;28;20327;-76
2022/01/23 13:09:32;;;;;;;55.88;36.63;;;;;;;6.03;90.83;103507.13;5028859;28;20025;-76
2022/01/23 13:13:04;;;;;;;55.90;36.50;;;;;;;6.04;91.13;103508.00;5044908;28;20124;-76
2022/01/23 13:30:52;;;;;;;59.88;38.20;;;;;;;6.13;90.65;103498.28;5017666;28;20478;-78
2022/01/23 13:33:23;;;;;;;58.53;38.33;;;;;;;6.11;90.67;103494.84;5029255;28;20036;-78
2022/01/23 13:35:53;;;;;;;62.45;40.00;;;;;;;6.13;91.48;103497.44;5027506;28;20095;-78
2022/01/23 13:38:21;;;;;;;59.08;39.47;;;;;;;6.12;90.31;103501.78;5031092;28;20033;-78
2022/01/23 13:40:56;;;;;;;59.38;39.47;;;;;;;6.13;90.70;103492.19;5031791;28;20426;-78
2022/01/23 13:52:22;;;;;;;56.35;38.95;;;;;;;6.16;90.84;103493.03;5032051;28;20123;-77
2022/01/23 14:02:25;;;;;;;55.92;38.55;;;;;;;6.19;90.85;103485.13;5030135;28;20071;-77
2022/01/23 14:05:05;;;;;;;59.08;39.35;;;;;;;6.23;91.74;103483.34;5031360;28;20063;-77
2022/01/23 14:07:31;;;;;;;58.75;39.58;;;;;;;6.24;91.88;103479.84;5028562;28;20171;-77
2022/01/23 14:10:14;;;;;;;56.60;40.17;;;;;;;6.25;91.29;103474.59;5030873;28;20029;-77
2022/01/23 14:12:40;;;;;;;59.20;38.80;;;;;;;6.26;91.90;103473.72;5028675;28;20921;-77
2022/01/23 14:15:15;;;;;;;58.97;39.47;;;;;;;6.28;92.33;103465.84;5028783;28;20033;-76
2022/01/23 14:18:01;;;;;;;58.50;38.33;;;;;;;6.27;91.21;103471.97;5029727;28;20053;-77
2022/01/23 14:20:29;;;;;;;56.92;37.90;;;;;;;6.27;91.24;103472.81;5030320;28;20025;-77
2022/01/23 14:22:56;;;;;;;63.38;41.78;;;;;;;6.27;91.66;103478.06;5045572;28;20071;-77
2022/01/23 14:25:27;;;;;;;58.72;40.50;;;;;;;6.29;91.66;103484.13;5029550;28;20033;-77
2022/01/23 14:28:14;;;;;;;59.10;40.33;;;;;;;6.34;92.25;103480.56;5027752;28;20021;-77
2022/01/23 14:31:14;;;;;;;64.55;40.50;;;;;;;6.37;92.22;103483.16;5029901;28;20504;-77
2022/01/23 14:33:40;;;;;;;51.97;36.42;;;;;;;6.31;90.78;103491.94;5028300;28;20025;-77
2022/01/23 14:36:21;;;;;;;56.33;38.58;;;;;;;6.34;91.55;103488.41;5028025;28;20049;-77
2022/01/23 14:38:53;;;;;;;56.00;38.38;;;;;;;6.32;91.51;103492.81;5029634;28;20033;-76
2022/01/23 14:41:18;;;;;;;54.35;38.88;;;;;;;6.31;91.96;103491.06;5029488;28;20026;-77
2022/01/23 14:43:43;;;;;;;56.92;38.08;;;;;;;6.30;92.31;103490.22;5028910;28;20028;-77
2022/01/23 14:46:14;;;;;;;54.53;37.88;;;;;;;6.31;92.00;103497.16;5026925;28;20032;-77
2022/01/23 14:48:47;;;;;;;60.08;39.70;;;;;;;6.31;92.25;103497.16;5029999;28;20772;-77
2022/01/23 14:51:25;;;;;;;60.80;39.83;;;;;;;6.30;92.11;103484.97;5027760;28;20017;-77